createdAt,value
2022-10-19T00:00:00.467Z,99.90
2022-10-19T00:02:27.388Z,99.90
2022-10-19T00:04:54.277Z,99.90
2022-10-19T00:07:21.187Z,99.90
2022-10-19T00:09:48.102Z,99.90
2022-10-19T00:12:15.085Z,99.90
2022-10-19T00:14:41.936Z,99.90
2022-10-19T00:17:08.816Z,99.90
2022-10-19T00:19:35.975Z,99.90
2022-10-19T00:22:02.862Z,99.90
2022-10-19T00:24:29.716Z,99.90
2022-10-19T00:26:56.672Z,99.90
2022-10-19T00:29:23.597Z,99.90
2022-10-19T00:31:51.119Z,99.90
2022-10-19T00:34:18.558Z,99.90
2022-10-19T00:36:46.067Z,99.90
2022-10-19T00:39:19.040Z,99.90
2022-10-19T00:41:47.716Z,99.90
2022-10-19T00:44:15.947Z,99.90
2022-10-19T00:46:45.365Z,99.90
2022-10-19T00:49:15.037Z,99.90
2022-10-19T00:51:47.279Z,99.90
2022-10-19T00:54:15.731Z,99.90
2022-10-19T00:56:45.145Z,99.90
2022-10-19T00:59:15.144Z,99.90
2022-10-19T01:01:44.326Z,99.90
2022-10-19T01:04:12.292Z,99.90
2022-10-19T01:06:40.508Z,99.90
2022-10-19T01:09:08.094Z,99.90
2022-10-19T01:11:57.559Z,99.90
2022-10-19T01:14:45.982Z,99.90
2022-10-19T01:17:27.785Z,99.90
2022-10-19T01:20:25.493Z,99.90
2022-10-19T01:23:29.147Z,99.90
2022-10-19T01:26:17.869Z,99.90
2022-10-19T01:28:59.509Z,99.90
2022-10-19T01:31:55.898Z,99.90
2022-10-19T01:34:38.450Z,99.90
2022-10-19T01:37:33.305Z,99.90
2022-10-19T01:40:34.257Z,99.90
2022-10-19T01:43:32.379Z,99.90
2022-10-19T01:46:09.133Z,99.90
2022-10-19T01:48:40.963Z,99.90
2022-10-19T01:51:13.360Z,99.90
2022-10-19T01:53:44.334Z,99.90
2022-10-19T01:56:12.800Z,99.90
2022-10-19T01:58:41.120Z,99.90
2022-10-19T02:03:40.485Z,99.90
2022-10-19T02:06:09.881Z,99.90
2022-10-19T02:08:46.911Z,99.90
2022-10-19T02:11:15.010Z,99.90
2022-10-19T02:13:44.326Z,99.90
2022-10-19T02:16:20.556Z,99.90
2022-10-19T02:18:50.758Z,99.90
2022-10-19T02:21:18.766Z,99.90
2022-10-19T02:23:47.514Z,99.90
2022-10-19T02:26:16.328Z,99.90
2022-10-19T02:28:43.224Z,99.90
2022-10-19T02:31:10.785Z,99.90
2022-10-19T02:33:38.346Z,99.90
2022-10-19T02:36:05.448Z,99.90
2022-10-19T02:38:32.522Z,99.90
2022-10-19T02:41:14.693Z,99.90
2022-10-19T02:43:45.271Z,99.90
2022-10-19T02:46:43.893Z,99.90
2022-10-19T02:49:12.436Z,99.90
2022-10-19T02:51:54.841Z,99.90
2022-10-19T02:54:21.929Z,99.90
2022-10-19T02:56:48.788Z,99.90
2022-10-19T02:59:15.678Z,99.90
2022-10-19T03:01:43.274Z,99.90
2022-10-19T03:04:10.156Z,99.90
2022-10-19T03:06:37.011Z,99.90
2022-10-19T03:09:04.415Z,99.90
2022-10-19T03:11:31.330Z,99.90
2022-10-19T03:13:58.186Z,99.90
2022-10-19T03:16:25.048Z,99.90
2022-10-19T03:18:52.192Z,99.90
2022-10-19T03:21:19.976Z,99.90
2022-10-19T03:28:42.704Z,99.90
2022-10-19T03:31:09.796Z,99.90
2022-10-19T03:33:36.662Z,99.90
2022-10-19T03:36:18.247Z,99.90
2022-10-19T03:38:45.192Z,99.90
2022-10-19T03:41:12.590Z,99.90
2022-10-19T03:43:41.293Z,99.90
2022-10-19T03:46:09.388Z,99.90
2022-10-19T03:48:36.489Z,99.90
2022-10-19T03:51:09.797Z,99.90
2022-10-19T04:31:11.872Z,99.90
2022-10-19T04:33:40.124Z,99.90
2022-10-19T04:36:09.484Z,99.90
2022-10-19T04:38:37.165Z,99.90
2022-10-19T04:41:06.367Z,99.90
2022-10-19T04:43:33.785Z,99.90
2022-10-19T04:46:05.919Z,99.90
2022-10-19T04:48:35.860Z,99.90
2022-10-19T04:51:03.179Z,99.90
2022-10-19T04:53:30.580Z,99.90
2022-10-19T04:55:57.579Z,99.90
2022-10-19T05:00:53.320Z,99.90
2022-10-19T05:03:20.268Z,99.90
2022-10-19T05:40:22.346Z,99.90
2022-10-19T05:42:49.196Z,99.90
2022-10-19T05:45:16.111Z,99.90
2022-10-19T05:47:42.955Z,99.90
2022-10-19T05:50:09.968Z,99.90
2022-10-19T05:52:36.826Z,99.90
2022-10-19T05:55:04.107Z,99.90
2022-10-19T05:57:33.391Z,99.90
2022-10-19T06:00:00.399Z,99.90
2022-10-19T06:02:27.265Z,99.90
2022-10-19T06:04:54.089Z,99.90
2022-10-19T06:07:20.975Z,99.90
2022-10-19T06:09:48.085Z,99.90
2022-10-19T06:12:16.305Z,99.90
2022-10-19T06:14:43.522Z,99.90
2022-10-19T06:17:10.846Z,99.90
2022-10-19T06:19:37.873Z,99.90
2022-10-19T06:22:04.805Z,99.90
2022-10-19T06:24:31.745Z,99.90
2022-10-19T06:26:58.668Z,99.90
2022-10-19T06:29:25.827Z,99.90
2022-10-19T06:31:54.370Z,99.90
2022-10-19T06:34:21.324Z,99.90
2022-10-19T06:36:48.221Z,99.90
2022-10-19T06:39:15.118Z,99.90
2022-10-19T06:41:42.031Z,99.90
2022-10-19T06:44:09.402Z,99.90
2022-10-19T06:46:36.256Z,99.90
2022-10-19T06:49:03.228Z,99.90
2022-10-19T06:51:32.193Z,99.90
2022-10-19T06:53:59.084Z,99.90
2022-10-19T06:56:26.738Z,99.90
2022-10-19T06:58:54.674Z,99.90
2022-10-19T07:01:22.310Z,99.90
2022-10-19T07:03:51.396Z,99.90
2022-10-19T07:06:18.738Z,99.90
2022-10-19T07:08:45.614Z,99.90
2022-10-19T07:11:19.189Z,99.90
2022-10-19T07:13:46.222Z,99.90
2022-10-19T07:16:19.501Z,99.90
2022-10-19T07:18:48.874Z,99.90
2022-10-19T07:21:16.999Z,99.90
2022-10-19T07:23:47.129Z,99.90
2022-10-19T07:26:21.383Z,99.90
2022-10-19T07:28:49.350Z,99.90
2022-10-19T07:31:24.262Z,99.90
2022-10-19T07:34:02.501Z,99.90
2022-10-19T07:36:31.129Z,99.90
2022-10-19T07:38:58.385Z,99.90
2022-10-19T07:41:26.725Z,99.90
2022-10-19T07:43:54.698Z,99.90
2022-10-19T07:46:25.442Z,99.90
2022-10-19T07:48:53.498Z,99.90
2022-10-19T07:51:21.282Z,99.90
2022-10-19T07:53:48.650Z,99.90
2022-10-19T07:56:18.410Z,99.90
2022-10-19T07:58:45.488Z,99.90
2022-10-19T08:01:13.952Z,99.90
2022-10-19T08:04:31.690Z,99.90
2022-10-19T08:06:28.558Z,99.90
2022-10-19T08:08:56.479Z,99.90
2022-10-19T08:11:31.187Z,99.90
2022-10-19T08:14:02.985Z,99.90
2022-10-19T08:16:39.545Z,99.90
2022-10-19T08:19:09.774Z,99.90
2022-10-19T08:21:37.960Z,99.90
2022-10-19T08:24:05.882Z,99.90
2022-10-19T08:33:57.002Z,99.90
2022-10-19T08:36:24.580Z,99.90
2022-10-19T08:38:51.474Z,99.90
2022-10-19T08:41:23.251Z,99.90
2022-10-19T08:44:14.745Z,99.90
2022-10-19T08:47:23.302Z,99.00
2022-10-19T08:49:51.171Z,98.90
2022-10-19T08:52:28.585Z,97.90
2022-10-19T08:55:01.145Z,98.80
2022-10-19T08:57:54.542Z,99.20
2022-10-19T09:00:46.710Z,95.20
2022-10-19T09:03:37.688Z,92.20
2022-10-19T09:06:40.619Z,93.40
2022-10-19T09:09:12.529Z,81.10
2022-10-19T09:11:46.282Z,81.60
2022-10-19T09:14:35.892Z,82.00
2022-10-19T09:17:16.600Z,85.70
2022-10-19T09:19:43.470Z,81.80
2022-10-19T09:22:20.818Z,83.10
2022-10-19T09:25:03.236Z,79.20
2022-10-19T09:27:41.161Z,75.80
2022-10-19T09:30:16.305Z,76.00
2022-10-19T09:32:43.477Z,78.60
2022-10-19T09:35:48.133Z,78.40
2022-10-19T09:38:16.921Z,77.20
2022-10-19T09:40:44.369Z,74.70
2022-10-19T09:43:21.844Z,73.10
2022-10-19T09:45:53.915Z,72.10
2022-10-19T09:48:27.870Z,73.30
2022-10-19T09:51:03.031Z,71.20
2022-10-19T09:53:30.644Z,72.90
2022-10-19T09:56:03.610Z,72.50
2022-10-19T09:58:33.120Z,70.10
2022-10-19T10:01:01.456Z,70.90
2022-10-19T10:03:36.155Z,69.80
2022-10-19T10:06:06.854Z,69.80
2022-10-19T10:08:37.010Z,70.50
2022-10-19T10:11:07.115Z,72.90
2022-10-19T10:13:38.451Z,73.80
2022-10-19T10:16:08.220Z,75.20
2022-10-19T10:18:49.295Z,72.90
2022-10-19T10:21:25.539Z,72.20
2022-10-19T10:24:20.890Z,75.40
2022-10-19T10:26:54.821Z,72.70
2022-10-19T10:29:26.420Z,70.90
2022-10-19T10:32:07.546Z,70.30
2022-10-19T10:34:45.973Z,70.40
2022-10-19T10:37:21.925Z,70.50
2022-10-19T10:39:53.008Z,71.00
2022-10-19T10:42:28.555Z,69.90
2022-10-19T10:44:56.595Z,69.80
2022-10-19T10:47:23.751Z,70.10
2022-10-19T10:49:57.870Z,71.00
2022-10-19T10:52:27.794Z,70.70
2022-10-19T10:55:02.389Z,70.90
2022-10-19T10:57:35.626Z,71.60
2022-10-19T11:00:18.104Z,69.20
2022-10-19T11:02:56.946Z,68.40
2022-10-19T11:05:33.889Z,68.50
2022-10-19T11:08:12.587Z,67.80
2022-10-19T11:11:33.660Z,66.60
2022-10-19T11:14:22.293Z,67.60
2022-10-19T11:16:52.378Z,67.30
2022-10-19T11:19:24.400Z,72.10
2022-10-19T11:22:24.911Z,76.30
2022-10-19T11:24:59.945Z,73.70
2022-10-19T11:27:46.524Z,73.90
2022-10-19T11:30:25.555Z,71.30
2022-10-19T11:32:55.285Z,72.00
2022-10-19T11:35:35.854Z,70.80
2022-10-19T11:38:30.465Z,70.70
2022-10-19T11:41:26.926Z,71.20
2022-10-19T11:44:17.738Z,69.50
2022-10-19T11:46:50.682Z,67.80
2022-10-19T11:49:32.824Z,66.10
2022-10-19T11:52:02.344Z,66.00
2022-10-19T11:54:47.259Z,66.30
2022-10-19T11:57:21.705Z,64.20
2022-10-19T11:59:48.553Z,66.00
2022-10-19T12:02:30.804Z,66.10
2022-10-19T12:05:10.810Z,65.70
2022-10-19T12:07:41.206Z,65.40
2022-10-19T12:10:17.456Z,64.10
2022-10-19T12:12:47.515Z,64.50
2022-10-19T12:15:28.656Z,64.70
2022-10-19T12:18:02.095Z,64.90
2022-10-19T12:20:39.882Z,64.60
2022-10-19T12:23:24.626Z,66.00
2022-10-19T12:25:53.140Z,66.40
2022-10-19T12:28:27.556Z,65.80
2022-10-19T12:30:55.767Z,67.40
2022-10-19T12:33:22.598Z,65.40
2022-10-19T12:36:05.460Z,65.50
2022-10-19T12:39:01.029Z,65.70
2022-10-19T12:41:44.384Z,68.10
2022-10-19T12:44:44.708Z,66.20
2022-10-19T12:47:19.292Z,66.10
2022-10-19T12:49:47.878Z,66.20
2022-10-19T12:52:35.162Z,66.90
2022-10-19T12:55:24.651Z,70.40
2022-10-19T12:58:21.529Z,73.70
2022-10-19T13:01:03.983Z,70.90
2022-10-19T13:03:35.298Z,68.50
2022-10-19T13:06:12.775Z,67.30
2022-10-19T13:08:48.064Z,66.70
2022-10-19T13:11:15.798Z,67.10
2022-10-19T13:14:01.627Z,67.00
2022-10-19T13:16:37.610Z,66.10
2022-10-19T13:19:13.628Z,66.50
2022-10-19T13:22:02.146Z,66.80
2022-10-19T13:24:36.738Z,67.00
2022-10-19T13:27:03.749Z,64.80
2022-10-19T13:29:41.320Z,64.70
2022-10-19T13:32:29.856Z,65.60
2022-10-19T13:35:31.923Z,66.70
2022-10-19T13:38:16.937Z,68.50
2022-10-19T13:40:49.994Z,78.50
2022-10-19T13:43:25.040Z,76.20
